sensor_id;sensor_type;location;lat;lon;timestamp;pressure;altitude;pressure_sealevel;temperature
53412;BMP280;39307;52.870;13.660;2023-08-08T00:01:47;100179.81;;;13.89
53412;BMP280;39307;52.870;13.660;2023-08-08T00:04:13;100186.97;;;13.83
53412;BMP280;39307;52.870;13.660;2023-08-08T00:06:40;100179.50;;;13.80
53412;BMP280;39307;52.870;13.660;2023-08-08T00:09:06;100193.47;;;13.80
53412;BMP280;39307;52.870;13.660;2023-08-08T00:11:32;100195.84;;;13.82
53412;BMP280;39307;52.870;13.660;2023-08-08T00:13:58;100170.34;;;13.82
53412;BMP280;39307;52.870;13.660;2023-08-08T00:16:24;100179.44;;;13.86
53412;BMP280;39307;52.870;13.660;2023-08-08T00:18:51;100193.59;;;13.85
53412;BMP280;39307;52.870;13.660;2023-08-08T00:21:17;100173.31;;;13.92
53412;BMP280;39307;52.870;13.660;2023-08-08T00:23:43;100176.66;;;13.81
53412;BMP280;39307;52.870;13.660;2023-08-08T00:26:09;100175.47;;;13.77
53412;BMP280;39307;52.870;13.660;2023-08-08T00:28:36;100182.16;;;13.73
53412;BMP280;39307;52.870;13.660;2023-08-08T00:31:02;100166.19;;;13.75
53412;BMP280;39307;52.870;13.660;2023-08-08T00:33:31;100170.47;;;13.69
53412;BMP280;39307;52.870;13.660;2023-08-08T00:35:57;100178.16;;;13.71
53412;BMP280;39307;52.870;13.660;2023-08-08T00:38:24;100175.31;;;13.72
53412;BMP280;39307;52.870;13.660;2023-08-08T00:40:50;100179.16;;;13.70
53412;BMP280;39307;52.870;13.660;2023-08-08T00:43:16;100165.94;;;13.76
53412;BMP280;39307;52.870;13.660;2023-08-08T00:45:43;100172.31;;;13.69
53412;BMP280;39307;52.870;13.660;2023-08-08T00:48:10;100159.22;;;13.62
53412;BMP280;39307;52.870;13.660;2023-08-08T00:50:37;100172.97;;;13.64
53412;BMP280;39307;52.870;13.660;2023-08-08T00:53:04;100175.13;;;13.67
53412;BMP280;39307;52.870;13.660;2023-08-08T00:55:31;100163.88;;;13.60
53412;BMP280;39307;52.870;13.660;2023-08-08T00:57:57;100178.41;;;13.63
53412;BMP280;39307;52.870;13.660;2023-08-08T01:00:24;100179.44;;;13.62
53412;BMP280;39307;52.870;13.660;2023-08-08T01:02:50;100179.66;;;13.60
53412;BMP280;39307;52.870;13.660;2023-08-08T01:05:16;100190.03;;;13.56
53412;BMP280;39307;52.870;13.660;2023-08-08T01:07:57;100201.41;;;13.50
53412;BMP280;39307;52.870;13.660;2023-08-08T01:10:37;100183.56;;;13.52
53412;BMP280;39307;52.870;13.660;2023-08-08T01:13:25;100197.38;;;13.47
53412;BMP280;39307;52.870;13.660;2023-08-08T01:15:53;100187.00;;;13.52
53412;BMP280;39307;52.870;13.660;2023-08-08T01:18:20;100195.53;;;13.48
53412;BMP280;39307;52.870;13.660;2023-08-08T01:20:47;100186.91;;;13.41
53412;BMP280;39307;52.870;13.660;2023-08-08T01:23:24;100188.31;;;13.37
53412;BMP280;39307;52.870;13.660;2023-08-08T01:25:53;100176.44;;;13.34
53412;BMP280;39307;52.870;13.660;2023-08-08T01:28:23;100187.53;;;13.36
53412;BMP280;39307;52.870;13.660;2023-08-08T01:30:50;100184.25;;;13.41
53412;BMP280;39307;52.870;13.660;2023-08-08T01:33:16;100190.75;;;13.38
53412;BMP280;39307;52.870;13.660;2023-08-08T01:35:46;100186.09;;;13.40
53412;BMP280;39307;52.870;13.660;2023-08-08T01:38:26;100194.19;;;13.39
53412;BMP280;39307;52.870;13.660;2023-08-08T01:40:57;100185.88;;;13.42
53412;BMP280;39307;52.870;13.660;2023-08-08T01:43:24;100193.56;;;13.43
53412;BMP280;39307;52.870;13.660;2023-08-08T01:45:51;100189.53;;;13.41
53412;BMP280;39307;52.870;13.660;2023-08-08T01:48:18;100189.28;;;13.42
53412;BMP280;39307;52.870;13.660;2023-08-08T01:50:44;100190.53;;;13.40
53412;BMP280;39307;52.870;13.660;2023-08-08T01:53:10;100188.72;;;13.40
53412;BMP280;39307;52.870;13.660;2023-08-08T01:55:37;100183.28;;;13.35
53412;BMP280;39307;52.870;13.660;2023-08-08T01:58:04;100170.94;;;13.36
53412;BMP280;39307;52.870;13.660;2023-08-08T02:00:30;100172.78;;;13.35
53412;BMP280;39307;52.870;13.660;2023-08-08T02:02:56;100164.84;;;13.42
53412;BMP280;39307;52.870;13.660;2023-08-08T02:05:22;100166.38;;;13.49
53412;BMP280;39307;52.870;13.660;2023-08-08T02:07:49;100165.63;;;13.42
53412;BMP280;39307;52.870;13.660;2023-08-08T02:10:15;100165.63;;;13.42
53412;BMP280;39307;52.870;13.660;2023-08-08T02:12:41;100164.03;;;13.41
53412;BMP280;39307;52.870;13.660;2023-08-08T02:15:08;100166.06;;;13.39
53412;BMP280;39307;52.870;13.660;2023-08-08T02:17:34;100161.59;;;13.40
53412;BMP280;39307;52.870;13.660;2023-08-08T02:20:00;100170.16;;;13.35
53412;BMP280;39307;52.870;13.660;2023-08-08T02:22:26;100165.31;;;13.32
53412;BMP280;39307;52.870;13.660;2023-08-08T02:24:52;100172.16;;;13.33
53412;BMP280;39307;52.870;13.660;2023-08-08T02:27:19;100165.97;;;13.28
53412;BMP280;39307;52.870;13.660;2023-08-08T02:29:45;100164.72;;;13.30
53412;BMP280;39307;52.870;13.660;2023-08-08T02:32:11;100158.88;;;13.28
53412;BMP280;39307;52.870;13.660;2023-08-08T02:34:38;100170.56;;;13.32
53412;BMP280;39307;52.870;13.660;2023-08-08T02:37:04;100161.28;;;13.30
53412;BMP280;39307;52.870;13.660;2023-08-08T02:39:31;100164.56;;;13.26
53412;BMP280;39307;52.870;13.660;2023-08-08T02:41:57;100163.75;;;13.25
53412;BMP280;39307;52.870;13.660;2023-08-08T02:44:23;100156.63;;;13.32
53412;BMP280;39307;52.870;13.660;2023-08-08T02:46:49;100161.28;;;13.30
53412;BMP280;39307;52.870;13.660;2023-08-08T02:49:16;100165.75;;;13.29
53412;BMP280;39307;52.870;13.660;2023-08-08T02:51:42;100168.59;;;13.28
53412;BMP280;39307;52.870;13.660;2023-08-08T02:54:09;100163.91;;;13.30
53412;BMP280;39307;52.870;13.660;2023-08-08T02:56:36;100169.44;;;13.22
53412;BMP280;39307;52.870;13.660;2023-08-08T02:59:02;100175.50;;;13.23
53412;BMP280;39307;52.870;13.660;2023-08-08T03:01:28;100172.44;;;13.26
53412;BMP280;39307;52.870;13.660;2023-08-08T03:03:54;100175.50;;;13.23
53412;BMP280;39307;52.870;13.660;2023-08-08T03:06:21;100172.81;;;13.29
53412;BMP280;39307;52.870;13.660;2023-08-08T03:08:47;100177.69;;;13.26
53412;BMP280;39307;52.870;13.660;2023-08-08T03:11:13;100171.00;;;13.29
53412;BMP280;39307;52.870;13.660;2023-08-08T03:13:39;100163.53;;;13.27
53412;BMP280;39307;52.870;13.660;2023-08-08T03:16:05;100162.56;;;13.21
53412;BMP280;39307;52.870;13.660;2023-08-08T03:18:32;100156.72;;;13.19
53412;BMP280;39307;52.870;13.660;2023-08-08T03:20:58;100154.09;;;13.19
53412;BMP280;39307;52.870;13.660;2023-08-08T03:23:24;100157.34;;;13.15
53412;BMP280;39307;52.870;13.660;2023-08-08T03:25:50;100168.41;;;13.23
53412;BMP280;39307;52.870;13.660;2023-08-08T03:28:17;100176.31;;;13.23
53412;BMP280;39307;52.870;13.660;2023-08-08T03:30:43;100163.34;;;13.22
53412;BMP280;39307;52.870;13.660;2023-08-08T03:33:09;100174.91;;;13.21
53412;BMP280;39307;52.870;13.660;2023-08-08T03:35:35;100170.00;;;13.24
53412;BMP280;39307;52.870;13.660;2023-08-08T03:38:02;100167.44;;;13.18
53412;BMP280;39307;52.870;13.660;2023-08-08T03:40:28;100172.50;;;13.19
53412;BMP280;39307;52.870;13.660;2023-08-08T03:42:54;100157.34;;;13.15
53412;BMP280;39307;52.870;13.660;2023-08-08T03:45:20;100171.50;;;13.14
53412;BMP280;39307;52.870;13.660;2023-08-08T03:47:46;100171.50;;;13.14
53412;BMP280;39307;52.870;13.660;2023-08-08T03:50:13;100178.38;;;13.15
53412;BMP280;39307;52.870;13.660;2023-08-08T03:52:39;100177.38;;;13.09
53412;BMP280;39307;52.870;13.660;2023-08-08T03:55:05;100176.38;;;13.10
53412;BMP280;39307;52.870;13.660;2023-08-08T03:57:31;100172.97;;;13.10
53412;BMP280;39307;52.870;13.660;2023-08-08T03:59:58;100172.34;;;13.08
53412;BMP280;39307;52.870;13.660;2023-08-08T04:02:25;100174.75;;;13.09
53412;BMP280;39307;52.870;13.660;2023-08-08T04:04:51;100178.22;;;13.10
53412;BMP280;39307;52.870;13.660;2023-08-08T04:07:17;100174.19;;;13.07
53412;BMP280;39307;52.870;13.660;2023-08-08T04:09:44;100188.13;;;13.08
53412;BMP280;39307;52.870;13.660;2023-08-08T04:12:10;100171.72;;;13.12
53412;BMP280;39307;52.870;13.660;2023-08-08T04:14:36;100172.50;;;13.13
53412;BMP280;39307;52.870;13.660;2023-08-08T04:17:02;100180.00;;;13.09
53412;BMP280;39307;52.870;13.660;2023-08-08T04:19:29;100180.84;;;13.10
53412;BMP280;39307;52.870;13.660;2023-08-08T04:21:56;100167.72;;;13.10
53412;BMP280;39307;52.870;13.660;2023-08-08T04:24:22;100168.50;;;13.10
53412;BMP280;39307;52.870;13.660;2023-08-08T04:26:49;100174.75;;;13.09
53412;BMP280;39307;52.870;13.660;2023-08-08T04:29:15;100179.81;;;13.11
53412;BMP280;39307;52.870;13.660;2023-08-08T04:31:41;100168.09;;;13.13
53412;BMP280;39307;52.870;13.660;2023-08-08T04:34:07;100179.53;;;13.19
53412;BMP280;39307;52.870;13.660;2023-08-08T04:36:34;100187.22;;;13.20
53412;BMP280;39307;52.870;13.660;2023-08-08T04:39:00;100180.91;;;13.27
53412;BMP280;39307;52.870;13.660;2023-08-08T04:41:26;100176.06;;;13.25
53412;BMP280;39307;52.870;13.660;2023-08-08T04:43:52;100183.97;;;13.25
53412;BMP280;39307;52.870;13.660;2023-08-08T04:46:19;100183.53;;;13.27
53412;BMP280;39307;52.870;13.660;2023-08-08T04:48:45;100174.78;;;13.33
53412;BMP280;39307;52.870;13.660;2023-08-08T04:51:11;100176.44;;;13.34
53412;BMP280;39307;52.870;13.660;2023-08-08T04:53:37;100182.91;;;13.32
53412;BMP280;39307;52.870;13.660;2023-08-08T04:56:04;100184.38;;;13.28
53412;BMP280;39307;52.870;13.660;2023-08-08T04:58:31;100175.66;;;13.27
53412;BMP280;39307;52.870;13.660;2023-08-08T05:00:57;100181.28;;;13.31
53412;BMP280;39307;52.870;13.660;2023-08-08T05:03:23;100183.09;;;13.30
53412;BMP280;39307;52.870;13.660;2023-08-08T05:05:49;100185.38;;;13.27
53412;BMP280;39307;52.870;13.660;2023-08-08T05:08:16;100173.41;;;13.31
53412;BMP280;39307;52.870;13.660;2023-08-08T05:10:42;100181.09;;;13.32
53412;BMP280;39307;52.870;13.660;2023-08-08T05:13:09;100185.16;;;13.28
53412;BMP280;39307;52.870;13.660;2023-08-08T05:15:35;100179.25;;;13.33
53412;BMP280;39307;52.870;13.660;2023-08-08T05:18:02;100189.56;;;13.34
53412;BMP280;39307;52.870;13.660;2023-08-08T05:20:28;100178.47;;;13.32
53412;BMP280;39307;52.870;13.660;2023-08-08T05:22:54;100183.28;;;13.35
53412;BMP280;39307;52.870;13.660;2023-08-08T05:25:21;100175.19;;;13.37
53412;BMP280;39307;52.870;13.660;2023-08-08T05:27:47;100184.47;;;13.39
53412;BMP280;39307;52.870;13.660;2023-08-08T05:30:13;100173.53;;;13.42
53412;BMP280;39307;52.870;13.660;2023-08-08T05:32:39;100178.97;;;13.47
53412;BMP280;39307;52.870;13.660;2023-08-08T05:35:06;100178.53;;;13.50
53412;BMP280;39307;52.870;13.660;2023-08-08T05:37:32;100180.13;;;13.51
53412;BMP280;39307;52.870;13.660;2023-08-08T05:39:58;100181.91;;;13.57
53412;BMP280;39307;52.870;13.660;2023-08-08T05:42:25;100170.34;;;13.58
53412;BMP280;39307;52.870;13.660;2023-08-08T05:44:51;100171.34;;;13.63
53412;BMP280;39307;52.870;13.660;2023-08-08T05:47:17;100171.56;;;13.62
53412;BMP280;39307;52.870;13.660;2023-08-08T05:49:43;100175.59;;;13.64
53412;BMP280;39307;52.870;13.660;2023-08-08T05:52:10;100178.38;;;13.69
53412;BMP280;39307;52.870;13.660;2023-08-08T05:54:36;100178.47;;;13.81
53412;BMP280;39307;52.870;13.660;2023-08-08T05:57:02;100177.53;;;13.99
53412;BMP280;39307;52.870;13.660;2023-08-08T05:59:29;100171.13;;;14.13
53412;BMP280;39307;52.870;13.660;2023-08-08T06:01:55;100171.91;;;14.14
53412;BMP280;39307;52.870;13.660;2023-08-08T06:04:21;100176.31;;;14.19
53412;BMP280;39307;52.870;13.660;2023-08-08T06:06:48;100190.47;;;14.18
53412;BMP280;39307;52.870;13.660;2023-08-08T06:09:14;100180.78;;;14.19
53412;BMP280;39307;52.870;13.660;2023-08-08T06:11:41;100183.34;;;14.25
53412;BMP280;39307;52.870;13.660;2023-08-08T06:14:07;100193.88;;;14.25
53412;BMP280;39307;52.870;13.660;2023-08-08T06:16:33;100191.38;;;14.30
53412;BMP280;39307;52.870;13.660;2023-08-08T06:19:00;100203.28;;;14.33
53412;BMP280;39307;52.870;13.660;2023-08-08T06:21:26;100201.88;;;14.30
53412;BMP280;39307;52.870;13.660;2023-08-08T06:23:52;100210.81;;;14.29
53412;BMP280;39307;52.870;13.660;2023-08-08T06:26:19;100213.66;;;14.28
53412;BMP280;39307;52.870;13.660;2023-08-08T06:28:45;100212.44;;;14.30
53412;BMP280;39307;52.870;13.660;2023-08-08T06:31:11;100204.31;;;14.32
53412;BMP280;39307;52.870;13.660;2023-08-08T06:33:37;100203.72;;;14.30
53412;BMP280;39307;52.870;13.660;2023-08-08T06:36:04;100206.97;;;14.32
53412;BMP280;39307;52.870;13.660;2023-08-08T06:38:31;100207.09;;;14.37
53412;BMP280;39307;52.870;13.660;2023-08-08T06:40:57;100199.25;;;14.30
53412;BMP280;39307;52.870;13.660;2023-08-08T06:43:23;100207.03;;;14.25
53412;BMP280;39307;52.870;13.660;2023-08-08T06:45:49;100211.47;;;14.25
53412;BMP280;39307;52.870;13.660;2023-08-08T06:48:15;100196.06;;;14.28
53412;BMP280;39307;52.870;13.660;2023-08-08T06:50:42;100209.00;;;14.30
53412;BMP280;39307;52.870;13.660;2023-08-08T06:53:08;100192.91;;;14.38
53412;BMP280;39307;52.870;13.660;2023-08-08T06:55:34;100192.84;;;14.44
53412;BMP280;39307;52.870;13.660;2023-08-08T06:58:01;100202.44;;;14.56
53412;BMP280;39307;52.870;13.660;2023-08-08T07:00:27;100195.75;;;14.72
53412;BMP280;39307;52.870;13.660;2023-08-08T07:02:53;100193.75;;;14.85
53412;BMP280;39307;52.870;13.660;2023-08-08T07:05:20;100192.41;;;14.94
53412;BMP280;39307;52.870;13.660;2023-08-08T07:07:46;100182.81;;;14.99
53412;BMP280;39307;52.870;13.660;2023-08-08T07:10:12;100184.16;;;15.08
53412;BMP280;39307;52.870;13.660;2023-08-08T07:12:40;100184.06;;;15.14
53412;BMP280;39307;52.870;13.660;2023-08-08T07:15:07;100190.72;;;15.17
53412;BMP280;39307;52.870;13.660;2023-08-08T07:17:33;100179.13;;;15.18
53412;BMP280;39307;52.870;13.660;2023-08-08T07:19:59;100188.44;;;15.20
53412;BMP280;39307;52.870;13.660;2023-08-08T07:22:25;100195.22;;;15.28
53412;BMP280;39307;52.870;13.660;2023-08-08T07:24:52;100190.31;;;15.42
53412;BMP280;39307;52.870;13.660;2023-08-08T07:27:18;100194.69;;;15.48
53412;BMP280;39307;52.870;13.660;2023-08-08T07:29:44;100190.81;;;15.51
53412;BMP280;39307;52.870;13.660;2023-08-08T07:32:10;100187.03;;;15.58
53412;BMP280;39307;52.870;13.660;2023-08-08T07:34:36;100203.09;;;15.57
53412;BMP280;39307;52.870;13.660;2023-08-08T07:37:03;100193.94;;;15.59
53412;BMP280;39307;52.870;13.660;2023-08-08T07:39:30;100194.50;;;15.61
53412;BMP280;39307;52.870;13.660;2023-08-08T07:41:56;100193.72;;;15.72
53412;BMP280;39307;52.870;13.660;2023-08-08T07:44:22;100193.84;;;15.77
53412;BMP280;39307;52.870;13.660;2023-08-08T07:46:48;100194.88;;;15.87
53412;BMP280;39307;52.870;13.660;2023-08-08T07:49:14;100182.69;;;15.97
53412;BMP280;39307;52.870;13.660;2023-08-08T07:51:41;100195.59;;;16.17
53412;BMP280;39307;52.870;13.660;2023-08-08T07:54:07;100173.78;;;16.32
53412;BMP280;39307;52.870;13.660;2023-08-08T07:56:33;100187.31;;;16.36
53412;BMP280;39307;52.870;13.660;2023-08-08T07:58:59;100164.78;;;16.45
53412;BMP280;39307;52.870;13.660;2023-08-08T08:01:26;100181.22;;;16.47
53412;BMP280;39307;52.870;13.660;2023-08-08T08:03:53;100172.84;;;16.38
53412;BMP280;39307;52.870;13.660;2023-08-08T08:06:19;100169.28;;;16.33
53412;BMP280;39307;52.870;13.660;2023-08-08T08:08:45;100182.72;;;16.31
53412;BMP280;39307;52.870;13.660;2023-08-08T08:11:12;100180.09;;;16.31
53412;BMP280;39307;52.870;13.660;2023-08-08T08:13:38;100173.31;;;16.35
53412;BMP280;39307;52.870;13.660;2023-08-08T08:16:04;100178.34;;;16.37
53412;BMP280;39307;52.870;13.660;2023-08-08T08:18:31;100180.97;;;16.48
53412;BMP280;39307;52.870;13.660;2023-08-08T08:20:57;100181.63;;;16.55
53412;BMP280;39307;52.870;13.660;2023-08-08T08:23:23;100183.47;;;16.54
53412;BMP280;39307;52.870;13.660;2023-08-08T08:25:49;100184.41;;;16.48
53412;BMP280;39307;52.870;13.660;2023-08-08T08:28:16;100187.97;;;16.43
53412;BMP280;39307;52.870;13.660;2023-08-08T08:30:42;100177.28;;;16.49
53412;BMP280;39307;52.870;13.660;2023-08-08T08:33:09;100175.34;;;16.56
53412;BMP280;39307;52.870;13.660;2023-08-08T08:35:35;100184.66;;;16.47
53412;BMP280;39307;52.870;13.660;2023-08-08T08:38:01;100173.75;;;16.44
53412;BMP280;39307;52.870;13.660;2023-08-08T08:40:28;100175.09;;;16.46
53412;BMP280;39307;52.870;13.660;2023-08-08T08:42:55;100170.28;;;16.54
53412;BMP280;39307;52.870;13.660;2023-08-08T08:45:22;100179.56;;;16.57
53412;BMP280;39307;52.870;13.660;2023-08-08T08:47:49;100184.06;;;16.56
53412;BMP280;39307;52.870;13.660;2023-08-08T08:50:20;100178.66;;;16.63
53412;BMP280;39307;52.870;13.660;2023-08-08T08:52:46;100178.31;;;16.59
53412;BMP280;39307;52.870;13.660;2023-08-08T08:55:13;100171.28;;;16.65
53412;BMP280;39307;52.870;13.660;2023-08-08T08:57:40;100175.84;;;16.80
53412;BMP280;39307;52.870;13.660;2023-08-08T09:00:06;100171.25;;;17.03
53412;BMP280;39307;52.870;13.660;2023-08-08T09:02:32;100163.16;;;17.21
53412;BMP280;39307;52.870;13.660;2023-08-08T09:04:59;100176.63;;;17.20
53412;BMP280;39307;52.870;13.660;2023-08-08T09:07:26;100170.44;;;17.14
53412;BMP280;39307;52.870;13.660;2023-08-08T09:09:53;100157.84;;;17.21
53412;BMP280;39307;52.870;13.660;2023-08-08T09:12:19;100171.13;;;17.37
53412;BMP280;39307;52.870;13.660;2023-08-08T09:14:46;100157.31;;;17.84
53412;BMP280;39307;52.870;13.660;2023-08-08T09:17:13;100155.53;;;18.43
53412;BMP280;39307;52.870;13.660;2023-08-08T09:19:43;100162.25;;;18.72
53412;BMP280;39307;52.870;13.660;2023-08-08T09:22:10;100151.97;;;18.75
53412;BMP280;39307;52.870;13.660;2023-08-08T09:24:42;100151.59;;;18.67
53412;BMP280;39307;52.870;13.660;2023-08-08T09:27:09;100153.81;;;18.53
53412;BMP280;39307;52.870;13.660;2023-08-08T09:29:36;100151.22;;;18.37
53412;BMP280;39307;52.870;13.660;2023-08-08T09:32:08;100150.84;;;18.29
53412;BMP280;39307;52.870;13.660;2023-08-08T09:34:35;100154.47;;;18.23
53412;BMP280;39307;52.870;13.660;2023-08-08T09:37:01;100157.06;;;18.18
53412;BMP280;39307;52.870;13.660;2023-08-08T09:39:28;100154.75;;;18.05
53412;BMP280;39307;52.870;13.660;2023-08-08T09:41:56;100150.25;;;17.90
53412;BMP280;39307;52.870;13.660;2023-08-08T09:44:28;100149.06;;;17.81
53412;BMP280;39307;52.870;13.660;2023-08-08T09:46:55;100148.50;;;17.79
53412;BMP280;39307;52.870;13.660;2023-08-08T09:49:21;100154.44;;;17.69
53412;BMP280;39307;52.870;13.660;2023-08-08T09:51:51;100165.03;;;17.53
53412;BMP280;39307;52.870;13.660;2023-08-08T09:54:17;100175.19;;;17.45
53412;BMP280;39307;52.870;13.660;2023-08-08T09:56:44;100160.94;;;17.46
53412;BMP280;39307;52.870;13.660;2023-08-08T09:59:10;100157.56;;;17.50
53412;BMP280;39307;52.870;13.660;2023-08-08T10:01:38;100154.94;;;17.50
53412;BMP280;39307;52.870;13.660;2023-08-08T10:04:06;100166.72;;;17.59
53412;BMP280;39307;52.870;13.660;2023-08-08T10:06:32;100167.69;;;17.53
53412;BMP280;39307;52.870;13.660;2023-08-08T10:08:59;100163.09;;;17.49
53412;BMP280;39307;52.870;13.660;2023-08-08T10:11:26;100170.66;;;17.40
53412;BMP280;39307;52.870;13.660;2023-08-08T10:13:53;100162.28;;;17.32
53412;BMP280;39307;52.870;13.660;2023-08-08T10:16:20;100152.41;;;17.28
53412;BMP280;39307;52.870;13.660;2023-08-08T10:18:59;100151.88;;;17.26
53412;BMP280;39307;52.870;13.660;2023-08-08T10:21:26;100136.06;;;17.63
53412;BMP280;39307;52.870;13.660;2023-08-08T10:24:03;100126.31;;;18.17
53412;BMP280;39307;52.870;13.660;2023-08-08T10:26:30;100126.34;;;18.38
53412;BMP280;39307;52.870;13.660;2023-08-08T10:28:58;100134.47;;;18.32
53412;BMP280;39307;52.870;13.660;2023-08-08T10:31:24;100127.69;;;18.20
53412;BMP280;39307;52.870;13.660;2023-08-08T10:34:02;100125.63;;;18.05
53412;BMP280;39307;52.870;13.660;2023-08-08T10:36:47;100144.00;;;17.95
53412;BMP280;39307;52.870;13.660;2023-08-08T10:39:19;100138.88;;;17.89
53412;BMP280;39307;52.870;13.660;2023-08-08T10:41:50;100132.56;;;17.74
53412;BMP280;39307;52.870;13.660;2023-08-08T10:44:25;100125.69;;;18.10
53412;BMP280;39307;52.870;13.660;2023-08-08T10:46:52;100122.19;;;18.68
53412;BMP280;39307;52.870;13.660;2023-08-08T10:49:19;100126.16;;;18.92
53412;BMP280;39307;52.870;13.660;2023-08-08T10:51:46;100124.75;;;18.84
53412;BMP280;39307;52.870;13.660;2023-08-08T10:54:24;100142.94;;;18.76
53412;BMP280;39307;52.870;13.660;2023-08-08T10:56:52;100141.34;;;18.75
53412;BMP280;39307;52.870;13.660;2023-08-08T10:59:23;100128.69;;;18.56
53412;BMP280;39307;52.870;13.660;2023-08-08T11:01:52;100129.22;;;18.58
53412;BMP280;39307;52.870;13.660;2023-08-08T11:04:23;100118.22;;;18.71
53412;BMP280;39307;52.870;13.660;2023-08-08T11:06:49;100116.47;;;19.02
53412;BMP280;39307;52.870;13.660;2023-08-08T11:09:16;100118.94;;;19.08
53412;BMP280;39307;52.870;13.660;2023-08-08T11:11:44;100122.97;;;19.16
53412;BMP280;39307;52.870;13.660;2023-08-08T11:14:15;100125.09;;;19.45
53412;BMP280;39307;52.870;13.660;2023-08-08T11:16:43;100106.75;;;20.15
53412;BMP280;39307;52.870;13.660;2023-08-08T11:19:10;100104.44;;;20.33
53412;BMP280;39307;52.870;13.660;2023-08-08T11:21:39;100110.81;;;20.37
53412;BMP280;39307;52.870;13.660;2023-08-08T11:24:06;100106.97;;;20.59
53412;BMP280;39307;52.870;13.660;2023-08-08T11:26:33;100109.34;;;20.56
53412;BMP280;39307;52.870;13.660;2023-08-08T11:29:04;100094.81;;;20.98
53412;BMP280;39307;52.870;13.660;2023-08-08T11:31:31;100083.44;;;21.32
53412;BMP280;39307;52.870;13.660;2023-08-08T11:33:58;100091.38;;;21.81
53412;BMP280;39307;52.870;13.660;2023-08-08T11:36:26;100084.44;;;21.80
53412;BMP280;39307;52.870;13.660;2023-08-08T11:38:56;100089.75;;;21.90
53412;BMP280;39307;52.870;13.660;2023-08-08T11:41:24;100080.09;;;22.18
53412;BMP280;39307;52.870;13.660;2023-08-08T11:43:51;100083.22;;;22.40
53412;BMP280;39307;52.870;13.660;2023-08-08T11:46:17;100089.25;;;22.65
53412;BMP280;39307;52.870;13.660;2023-08-08T11:48:47;100074.41;;;22.92
53412;BMP280;39307;52.870;13.660;2023-08-08T11:51:15;100082.28;;;23.12
53412;BMP280;39307;52.870;13.660;2023-08-08T11:53:52;100072.75;;;23.34
53412;BMP280;39307;52.870;13.660;2023-08-08T11:56:21;100067.84;;;23.45
53412;BMP280;39307;52.870;13.660;2023-08-08T11:58:50;100073.19;;;23.45
53412;BMP280;39307;52.870;13.660;2023-08-08T12:01:18;100071.88;;;23.43
53412;BMP280;39307;52.870;13.660;2023-08-08T12:03:46;100062.38;;;23.32
53412;BMP280;39307;52.870;13.660;2023-08-08T12:06:15;100061.25;;;23.05
53412;BMP280;39307;52.870;13.660;2023-08-08T12:08:43;100074.59;;;22.58
53412;BMP280;39307;52.870;13.660;2023-08-08T12:11:10;100074.16;;;22.36
53412;BMP280;39307;52.870;13.660;2023-08-08T12:13:38;100088.41;;;22.02
53412;BMP280;39307;52.870;13.660;2023-08-08T12:16:05;100091.41;;;21.66
53412;BMP280;39307;52.870;13.660;2023-08-08T12:18:32;100091.94;;;21.39
53412;BMP280;39307;52.870;13.660;2023-08-08T12:20:58;100104.16;;;21.05
53412;BMP280;39307;52.870;13.660;2023-08-08T12:23:26;100120.00;;;20.71
53412;BMP280;39307;52.870;13.660;2023-08-08T12:25:52;100156.66;;;20.54
53412;BMP280;39307;52.870;13.660;2023-08-08T12:28:19;100172.84;;;20.07
53412;BMP280;39307;52.870;13.660;2023-08-08T12:30:45;100169.25;;;19.56
53412;BMP280;39307;52.870;13.660;2023-08-08T12:33:11;100163.59;;;19.16
53412;BMP280;39307;52.870;13.660;2023-08-08T12:35:37;100164.28;;;18.86
53412;BMP280;39307;52.870;13.660;2023-08-08T12:38:04;100162.00;;;18.73
53412;BMP280;39307;52.870;13.660;2023-08-08T12:40:30;100155.84;;;18.89
53412;BMP280;39307;52.870;13.660;2023-08-08T12:42:56;100161.22;;;19.20
53412;BMP280;39307;52.870;13.660;2023-08-08T12:45:22;100152.50;;;19.50
53412;BMP280;39307;52.870;13.660;2023-08-08T12:47:48;100157.47;;;19.73
53412;BMP280;39307;52.870;13.660;2023-08-08T12:50:15;100158.25;;;19.73
53412;BMP280;39307;52.870;13.660;2023-08-08T12:52:41;100160.91;;;19.73
53412;BMP280;39307;52.870;13.660;2023-08-08T12:55:07;100162.81;;;19.78
53412;BMP280;39307;52.870;13.660;2023-08-08T12:57:34;100172.50;;;19.63
53412;BMP280;39307;52.870;13.660;2023-08-08T13:00:00;100198.31;;;19.41
53412;BMP280;39307;52.870;13.660;2023-08-08T13:02:27;100215.81;;;19.16
53412;BMP280;39307;52.870;13.660;2023-08-08T13:04:53;100219.78;;;18.71
53412;BMP280;39307;52.870;13.660;2023-08-08T13:07:19;100215.81;;;18.15
53412;BMP280;39307;52.870;13.660;2023-08-08T13:09:45;100208.75;;;17.72
53412;BMP280;39307;52.870;13.660;2023-08-08T13:12:12;100204.31;;;17.45
53412;BMP280;39307;52.870;13.660;2023-08-08T13:14:38;100188.41;;;17.29
53412;BMP280;39307;52.870;13.660;2023-08-08T13:17:04;100183.78;;;17.08
53412;BMP280;39307;52.870;13.660;2023-08-08T13:19:31;100175.41;;;17.00
53412;BMP280;39307;52.870;13.660;2023-08-08T13:21:57;100177.16;;;16.94
53412;BMP280;39307;52.870;13.660;2023-08-08T13:24:23;100168.75;;;16.97
53412;BMP280;39307;52.870;13.660;2023-08-08T13:26:50;100173.81;;;16.99
53412;BMP280;39307;52.870;13.660;2023-08-08T13:29:16;100169.16;;;17.05
53412;BMP280;39307;52.870;13.660;2023-08-08T13:31:42;100189.84;;;17.08
53412;BMP280;39307;52.870;13.660;2023-08-08T13:34:09;100186.09;;;17.04
53412;BMP280;39307;52.870;13.660;2023-08-08T13:36:35;100184.13;;;17.00
53412;BMP280;39307;52.870;13.660;2023-08-08T13:39:01;100191.09;;;16.90
53412;BMP280;39307;52.870;13.660;2023-08-08T13:41:27;100190.97;;;16.85
53412;BMP280;39307;52.870;13.660;2023-08-08T13:43:53;100191.69;;;16.80